createdAt,value
2022-12-26T00:01:02.434Z,10.00
2022-12-26T00:06:09.622Z,10.00
2022-12-26T00:11:17.675Z,10.10
2022-12-26T00:16:26.160Z,10.20
2022-12-26T00:21:31.383Z,10.30
2022-12-26T00:26:40.289Z,10.30
2022-12-26T00:31:45.606Z,10.30
2022-12-26T00:36:57.287Z,10.20
2022-12-26T00:42:10.635Z,10.20
2022-12-26T00:47:13.772Z,10.20
2022-12-26T00:52:19.173Z,10.20
2022-12-26T00:57:30.327Z,10.10
2022-12-26T01:02:38.840Z,10.10
2022-12-26T01:08:23.260Z,10.00
2022-12-26T01:13:10.645Z,10.00
2022-12-26T01:18:15.127Z,9.90
2022-12-26T01:23:18.299Z,9.80
2022-12-26T01:28:23.065Z,9.70
2022-12-26T01:33:25.912Z,9.70
2022-12-26T01:38:30.739Z,9.70
2022-12-26T01:43:47.728Z,9.60
2022-12-26T01:48:51.750Z,9.60
2022-12-26T01:54:38.613Z,9.70
2022-12-26T01:59:28.660Z,9.70
2022-12-26T02:04:56.653Z,9.60
2022-12-26T02:10:02.483Z,9.60
2022-12-26T02:15:08.819Z,9.60
2022-12-26T02:20:27.523Z,9.60
2022-12-26T02:26:11.497Z,9.60
2022-12-26T02:31:26.447Z,9.60
2022-12-26T02:36:31.905Z,9.60
2022-12-26T02:42:04.677Z,9.60
2022-12-26T02:47:16.188Z,9.70
2022-12-26T02:52:43.823Z,9.70
2022-12-26T02:58:39.159Z,9.80
2022-12-26T03:04:04.125Z,10.00
2022-12-26T03:15:05.914Z,10.00
2022-12-26T03:20:36.216Z,9.90
2022-12-26T03:26:06.953Z,9.70
2022-12-26T03:31:16.688Z,9.60
2022-12-26T03:36:58.569Z,9.50
2022-12-26T03:42:31.084Z,9.50
2022-12-26T03:48:07.109Z,9.50
2022-12-26T03:53:41.457Z,9.40
2022-12-26T03:59:22.471Z,9.40
2022-12-26T04:04:49.959Z,9.30
2022-12-26T04:11:03.265Z,9.30
2022-12-26T04:16:43.733Z,9.20
2022-12-26T04:22:26.356Z,9.20
2022-12-26T04:28:07.238Z,9.20
2022-12-26T04:33:37.730Z,9.10
2022-12-26T04:39:16.373Z,9.20
2022-12-26T04:44:25.691Z,9.10
2022-12-26T04:50:02.568Z,9.00
2022-12-26T04:55:07.909Z,9.00
2022-12-26T05:00:13.343Z,9.00
2022-12-26T05:05:37.578Z,9.00
2022-12-26T05:10:43.771Z,8.80
2022-12-26T05:16:28.623Z,8.70
2022-12-26T05:21:57.267Z,8.60
2022-12-26T05:27:27.558Z,8.60
2022-12-26T05:32:52.044Z,8.40
2022-12-26T05:38:00.146Z,8.40
2022-12-26T05:43:04.695Z,8.40
2022-12-26T05:48:13.183Z,8.40
2022-12-26T05:53:23.906Z,8.30
2022-12-26T05:58:38.654Z,8.20
2022-12-26T06:04:09.374Z,8.20
2022-12-26T06:09:16.592Z,8.20
2022-12-26T06:14:20.543Z,8.10
2022-12-26T06:19:27.663Z,8.00
2022-12-26T06:24:32.409Z,8.00
2022-12-26T06:29:37.728Z,8.10
2022-12-26T06:34:50.907Z,8.10
2022-12-26T06:39:59.325Z,8.10
2022-12-26T06:45:15.951Z,8.10
2022-12-26T06:50:30.514Z,8.10
2022-12-26T06:55:40.318Z,8.10
2022-12-26T07:01:02.268Z,8.10
2022-12-26T07:06:46.241Z,8.10
2022-12-26T07:12:11.258Z,8.20
2022-12-26T07:17:29.022Z,8.20
2022-12-26T07:44:32.775Z,8.10
2022-12-26T07:49:44.354Z,8.10
2022-12-26T07:55:11.178Z,8.10
2022-12-26T08:00:52.889Z,8.10
2022-12-26T08:06:06.175Z,8.10
2022-12-26T08:17:15.194Z,8.00
2022-12-26T08:22:28.068Z,8.00
2022-12-26T08:34:05.130Z,7.80
2022-12-26T08:45:18.874Z,7.50
2022-12-26T08:50:47.938Z,7.50
2022-12-26T11:10:35.601Z,10.00
2022-12-26T11:22:40.549Z,10.30
2022-12-26T11:28:13.778Z,10.30
2022-12-26T11:47:48.993Z,10.00
2022-12-26T11:52:58.853Z,10.00
2022-12-26T11:58:34.219Z,10.10
2022-12-26T12:05:06.671Z,10.00
2022-12-26T12:11:05.711Z,10.10
2022-12-26T12:16:37.276Z,10.20
2022-12-26T12:21:56.949Z,10.30
2022-12-26T12:39:11.624Z,10.30
2022-12-26T12:44:56.684Z,10.30
2022-12-26T12:56:41.743Z,10.20
2022-12-26T13:01:51.979Z,10.20
2022-12-26T13:07:13.941Z,10.40
2022-12-26T13:12:32.020Z,10.50
2022-12-26T13:18:34.975Z,10.50
2022-12-26T13:24:20.775Z,10.30
2022-12-26T13:29:49.475Z,10.20
2022-12-26T13:35:13.148Z,10.00
2022-12-26T13:40:40.722Z,10.00
2022-12-26T13:46:13.615Z,10.00
2022-12-26T13:51:42.640Z,10.10
2022-12-26T13:57:45.630Z,10.00
2022-12-26T14:03:19.768Z,10.10
2022-12-26T14:14:56.953Z,10.20
2022-12-26T14:27:10.704Z,10.10
2022-12-26T14:33:01.254Z,10.10
2022-12-26T14:39:12.158Z,9.90
2022-12-26T14:44:29.757Z,9.60
2022-12-26T14:49:41.017Z,9.50
2022-12-26T15:00:23.274Z,9.10
2022-12-26T15:05:58.672Z,8.90
2022-12-26T15:11:22.305Z,8.90
2022-12-26T15:17:14.757Z,9.00
2022-12-26T15:22:54.129Z,9.10
2022-12-26T15:28:38.365Z,9.10
2022-12-26T15:40:20.176Z,9.10
2022-12-26T15:46:53.268Z,9.10
2022-12-26T15:52:53.151Z,9.10
2022-12-26T15:58:37.610Z,9.00
2022-12-26T16:03:57.899Z,8.90
2022-12-26T16:09:37.706Z,8.70
2022-12-26T16:14:45.684Z,8.60
2022-12-26T16:20:21.350Z,8.60
2022-12-26T16:25:40.062Z,8.30
2022-12-26T16:31:34.795Z,8.10
2022-12-26T16:37:21.326Z,8.10
2022-12-26T16:56:40.459Z,7.60
2022-12-26T17:14:53.859Z,7.60
2022-12-26T17:32:21.900Z,7.20
2022-12-26T17:37:39.019Z,7.00
2022-12-26T18:22:18.125Z,7.10
2022-12-26T18:27:38.769Z,7.20
2022-12-26T18:32:56.542Z,7.30
2022-12-26T18:38:26.295Z,7.30
2022-12-26T18:43:40.004Z,7.20
2022-12-26T18:48:58.564Z,7.10
2022-12-26T18:54:03.627Z,7.00
2022-12-26T18:59:06.473Z,6.80
2022-12-26T19:04:15.763Z,6.70
2022-12-26T19:09:18.279Z,6.70
2022-12-26T19:14:22.362Z,6.80
2022-12-26T19:19:26.834Z,6.90
2022-12-26T19:24:29.622Z,6.80
2022-12-26T19:29:32.269Z,6.70
2022-12-26T19:34:34.995Z,6.60
2022-12-26T19:39:40.203Z,6.60
2022-12-26T19:44:44.907Z,6.50
2022-12-26T19:49:49.376Z,6.50
2022-12-26T19:54:55.369Z,6.60
2022-12-26T20:20:10.184Z,6.20
2022-12-26T20:26:27.712Z,6.30
2022-12-26T20:32:56.201Z,6.60
2022-12-26T20:43:57.351Z,6.90
2022-12-26T20:50:06.457Z,6.80
2022-12-26T20:55:49.678Z,6.70
2022-12-26T21:01:34.869Z,6.50
2022-12-26T21:07:02.322Z,6.40
2022-12-26T21:24:09.581Z,6.20
2022-12-26T21:29:32.683Z,6.20
2022-12-26T21:40:49.495Z,6.20
2022-12-26T21:46:01.580Z,6.20
2022-12-26T21:56:31.471Z,6.10
2022-12-26T22:02:40.114Z,6.00
2022-12-26T22:07:48.163Z,5.90
2022-12-26T22:18:52.311Z,5.80
2022-12-26T22:24:32.944Z,5.80
2022-12-26T22:29:38.695Z,5.80
2022-12-26T22:35:01.463Z,5.80
2022-12-26T22:45:58.628Z,5.80
2022-12-26T22:56:47.807Z,5.90
2022-12-26T23:02:05.646Z,5.90
2022-12-26T23:07:28.538Z,5.90
2022-12-26T23:12:43.679Z,6.00
2022-12-26T23:18:33.692Z,6.10
2022-12-26T23:29:20.001Z,6.10
2022-12-26T23:34:28.829Z,6.10
2022-12-26T23:39:51.914Z,6.10
2022-12-26T23:44:57.390Z,6.00
2022-12-26T23:50:02.498Z,6.10
2022-12-26T23:55:09.740Z,6.10
